TOM6MN LEPA-EGFF
Flight info
| Callsign | TOM6MN |
|---|---|
| Flight time | N/A |
| Altitude | 34000 |
| Route | DRAGO5A/24R DRAGO DCT PAPOS DCT UMURE N863 GIROM DCT AGN DCT SECHE DCT UVELI DCT CNA DCT MANAK DCT MUREL DCT NOZHU/N0451F350 DCT SHIRI DCT TOJAQ |
| Aircraft | B738/M-SDE2E3FGHIRWXY/LB1 |
Departure
| Time | N/A |
|---|---|
| Airport | Palma de Mallorca Airport (LEPA) |
Arrival
| Time | 2026-05-03 21:16 |
|---|---|
| Airport | Cardiff International Airport (EGFF) |
| Time | Latitude | Longitude | Altitude | Speed | Heading |
|---|---|---|---|---|---|
| 2026-05-03 20:37 | 47.71949 | -2.16148 | 33951 ft | 470 kts | 325° |
| 2026-05-03 20:37 | 47.77647 | -2.20920 | 33950 ft | 471 kts | 325° |
| 2026-05-03 20:38 | 47.83320 | -2.25684 | 33952 ft | 472 kts | 325° |
| 2026-05-03 20:38 | 47.89041 | -2.30499 | 33948 ft | 473 kts | 325° |
| 2026-05-03 20:39 | 47.94779 | -2.35341 | 33943 ft | 474 kts | 325° |
| 2026-05-03 20:39 | 48.00525 | -2.40203 | 33961 ft | 475 kts | 325° |
| 2026-05-03 20:40 | 48.06280 | -2.45083 | 33946 ft | 476 kts | 325° |
| 2026-05-03 20:40 | 48.12036 | -2.49978 | 33946 ft | 476 kts | 325° |
| 2026-05-03 20:41 | 48.17793 | -2.54886 | 33946 ft | 476 kts | 325° |
| 2026-05-03 20:41 | 48.23549 | -2.59808 | 33951 ft | 477 kts | 326° |
| 2026-05-03 20:42 | 48.29301 | -2.64737 | 33946 ft | 475 kts | 326° |
| 2026-05-03 20:42 | 48.35029 | -2.69658 | 33945 ft | 474 kts | 326° |
| 2026-05-03 20:43 | 48.40736 | -2.74575 | 33963 ft | 472 kts | 326° |
| 2026-05-03 20:43 | 48.46424 | -2.79489 | 33949 ft | 470 kts | 326° |
| 2026-05-03 20:44 | 48.52087 | -2.84394 | 33963 ft | 469 kts | 326° |
| 2026-05-03 20:44 | 48.57729 | -2.89293 | 33964 ft | 467 kts | 326° |
| 2026-05-03 20:45 | 48.63356 | -2.94192 | 33973 ft | 466 kts | 326° |
| 2026-05-03 20:45 | 48.68932 | -2.99060 | 33965 ft | 466 kts | 326° |
| 2026-05-03 20:46 | 48.74548 | -3.03975 | 33959 ft | 466 kts | 326° |
| 2026-05-03 20:46 | 48.80161 | -3.08901 | 33965 ft | 466 kts | 326° |
| 2026-05-03 20:47 | 48.85775 | -3.13840 | 33957 ft | 466 kts | 326° |
| 2026-05-03 20:47 | 48.91383 | -3.18787 | 33961 ft | 466 kts | 326° |
| 2026-05-03 20:48 | 48.96986 | -3.23742 | 33944 ft | 466 kts | 326° |
| 2026-05-03 20:48 | 49.02581 | -3.28703 | 33945 ft | 465 kts | 326° |
| 2026-05-03 20:49 | 49.07227 | -3.32832 | 33958 ft | 465 kts | 326° |
| 2026-05-03 20:49 | 49.12814 | -3.37811 | 33949 ft | 465 kts | 326° |
| 2026-05-03 20:50 | 49.18393 | -3.42795 | 33943 ft | 465 kts | 326° |
| 2026-05-03 20:50 | 49.23970 | -3.47791 | 33952 ft | 464 kts | 326° |
| 2026-05-03 20:51 | 49.29538 | -3.52791 | 33951 ft | 464 kts | 326° |
| 2026-05-03 20:51 | 49.35329 | -3.57199 | 33970 ft | 467 kts | 337° |
| 2026-05-03 20:52 | 49.41413 | -3.60540 | 33659 ft | 459 kts | 338° |
| 2026-05-03 20:52 | 49.44401 | -3.62161 | 33346 ft | 451 kts | 338° |
| 2026-05-03 20:52 | 49.47339 | -3.63787 | 32941 ft | 447 kts | 337° |
| 2026-05-03 20:52 | 49.50245 | -3.65427 | 32541 ft | 443 kts | 337° |
| 2026-05-03 20:53 | 49.53118 | -3.67069 | 32149 ft | 439 kts | 337° |
| 2026-05-03 20:53 | 49.55974 | -3.68710 | 31748 ft | 436 kts | 337° |
| 2026-05-03 20:53 | 49.58808 | -3.70341 | 31355 ft | 433 kts | 337° |
| 2026-05-03 20:53 | 49.61624 | -3.71961 | 30976 ft | 430 kts | 337° |
| 2026-05-03 20:54 | 49.64418 | -3.73569 | 30597 ft | 428 kts | 337° |
| 2026-05-03 20:54 | 49.70117 | -3.76050 | 29804 ft | 427 kts | 352° |
| 2026-05-03 20:54 | 49.73074 | -3.76243 | 29364 ft | 425 kts | 2° |
| 2026-05-03 20:55 | 49.76010 | -3.75922 | 28976 ft | 421 kts | 4° |
| 2026-05-03 20:55 | 49.78918 | -3.75534 | 28566 ft | 418 kts | 4° |
| 2026-05-03 20:55 | 49.81799 | -3.75138 | 28190 ft | 414 kts | 4° |
| 2026-05-03 20:55 | 49.84660 | -3.74755 | 27790 ft | 411 kts | 4° |
| 2026-05-03 20:56 | 49.87499 | -3.74390 | 27409 ft | 408 kts | 3° |
| 2026-05-03 20:56 | 49.90318 | -3.74040 | 27031 ft | 405 kts | 3° |
| 2026-05-03 20:56 | 49.93118 | -3.73700 | 26667 ft | 402 kts | 3° |
| 2026-05-03 20:56 | 49.95900 | -3.73367 | 26290 ft | 400 kts | 3° |
| 2026-05-03 20:57 | 49.98667 | -3.73036 | 25922 ft | 397 kts | 3° |
| 2026-05-03 20:57 | 50.01416 | -3.72709 | 25554 ft | 395 kts | 3° |
| 2026-05-03 20:57 | 50.04149 | -3.72382 | 25189 ft | 393 kts | 2° |
| 2026-05-03 20:57 | 50.06873 | -3.72056 | 24826 ft | 392 kts | 2° |
| 2026-05-03 20:58 | 50.09583 | -3.71731 | 24464 ft | 390 kts | 2° |
| 2026-05-03 20:58 | 50.12247 | -3.71412 | 24107 ft | 389 kts | 2° |
| 2026-05-03 20:58 | 50.14940 | -3.71088 | 23747 ft | 387 kts | 3° |
| 2026-05-03 20:58 | 50.17623 | -3.70766 | 23363 ft | 386 kts | 3° |
| 2026-05-03 20:59 | 50.20298 | -3.70444 | 22946 ft | 385 kts | 3° |
| 2026-05-03 20:59 | 50.22961 | -3.70122 | 22559 ft | 382 kts | 3° |
| 2026-05-03 20:59 | 50.25603 | -3.69803 | 22186 ft | 380 kts | 3° |
| 2026-05-03 20:59 | 50.28229 | -3.69486 | 21819 ft | 377 kts | 3° |
| 2026-05-03 21:00 | 50.30836 | -3.69170 | 21464 ft | 375 kts | 3° |
| 2026-05-03 21:00 | 50.32590 | -3.68958 | 21228 ft | 373 kts | 3° |
| 2026-05-03 21:00 | 50.36004 | -3.68543 | 20746 ft | 370 kts | 3° |
| 2026-05-03 21:00 | 50.38567 | -3.68233 | 20403 ft | 368 kts | 3° |
| 2026-05-03 21:01 | 50.41113 | -3.67923 | 20065 ft | 366 kts | 3° |
| 2026-05-03 21:01 | 50.43645 | -3.67533 | 19712 ft | 366 kts | 6° |
| 2026-05-03 21:01 | 50.46175 | -3.67043 | 19370 ft | 369 kts | 6° |
| 2026-05-03 21:01 | 50.48804 | -3.66487 | 18914 ft | 399 kts | 9° |
| 2026-05-03 21:02 | 50.51589 | -3.65493 | 18365 ft | 412 kts | 14° |
| 2026-05-03 21:02 | 50.54342 | -3.64275 | 17884 ft | 410 kts | 16° |
| 2026-05-03 21:02 | 50.57058 | -3.63004 | 17455 ft | 405 kts | 17° |
| 2026-05-03 21:02 | 50.59750 | -3.61745 | 17060 ft | 401 kts | 16° |
| 2026-05-03 21:03 | 50.62415 | -3.60520 | 16674 ft | 397 kts | 16° |
| 2026-05-03 21:03 | 50.65059 | -3.59329 | 16301 ft | 393 kts | 16° |
| 2026-05-03 21:03 | 50.67680 | -3.58165 | 15920 ft | 390 kts | 16° |
| 2026-05-03 21:03 | 50.70285 | -3.57018 | 15549 ft | 387 kts | 15° |
| 2026-05-03 21:04 | 50.72869 | -3.55884 | 15180 ft | 385 kts | 15° |
| 2026-05-03 21:04 | 50.75441 | -3.54757 | 14807 ft | 382 kts | 16° |
| 2026-05-03 21:04 | 50.77926 | -3.53315 | 14414 ft | 381 kts | 30° |
| 2026-05-03 21:04 | 50.80112 | -3.50984 | 14080 ft | 378 kts | 38° |
| 2026-05-03 21:05 | 50.82187 | -3.48458 | 13685 ft | 376 kts | 39° |
| 2026-05-03 21:05 | 50.84235 | -3.45898 | 13229 ft | 374 kts | 39° |
| 2026-05-03 21:05 | 50.86270 | -3.43334 | 12777 ft | 373 kts | 39° |
| 2026-05-03 21:05 | 50.88294 | -3.40769 | 12332 ft | 372 kts | 39° |
| 2026-05-03 21:06 | 50.90303 | -3.38214 | 11888 ft | 368 kts | 40° |
| 2026-05-03 21:06 | 50.92286 | -3.35685 | 11453 ft | 364 kts | 40° |
| 2026-05-03 21:06 | 50.94248 | -3.33175 | 11022 ft | 360 kts | 40° |
| 2026-05-03 21:06 | 50.96187 | -3.30688 | 10597 ft | 357 kts | 40° |
| 2026-05-03 21:07 | 50.98104 | -3.28224 | 10174 ft | 353 kts | 40° |
| 2026-05-03 21:07 | 51.00004 | -3.25774 | 9759 ft | 350 kts | 40° |
| 2026-05-03 21:07 | 51.01882 | -3.23346 | 9303 ft | 347 kts | 40° |
| 2026-05-03 21:07 | 51.03748 | -3.20929 | 8854 ft | 344 kts | 40° |
| 2026-05-03 21:08 | 51.05596 | -3.18531 | 8408 ft | 342 kts | 40° |
| 2026-05-03 21:08 | 51.07428 | -3.16150 | 7976 ft | 339 kts | 40° |
| 2026-05-03 21:08 | 51.09249 | -3.13782 | 7549 ft | 337 kts | 40° |
| 2026-05-03 21:08 | 51.11054 | -3.11432 | 7121 ft | 334 kts | 40° |
| 2026-05-03 21:09 | 51.12833 | -3.09113 | 6688 ft | 325 kts | 40° |
| 2026-05-03 21:09 | 51.14555 | -3.06867 | 6262 ft | 315 kts | 40° |
| 2026-05-03 21:09 | 51.16227 | -3.04685 | 5825 ft | 306 kts | 40° |
| 2026-05-03 21:09 | 51.17828 | -3.02593 | 5415 ft | 298 kts | 40° |
| 2026-05-03 21:10 | 51.19439 | -3.00594 | 4994 ft | 290 kts | 31° |
| 2026-05-03 21:10 | 51.21347 | -2.99592 | 4570 ft | 284 kts | 3° |
| 2026-05-03 21:10 | 51.23292 | -2.99809 | 4187 ft | 278 kts | 352° |
| 2026-05-03 21:10 | 51.25165 | -3.00287 | 3790 ft | 275 kts | 350° |
| 2026-05-03 21:11 | 51.27047 | -3.00803 | 3435 ft | 274 kts | 350° |
| 2026-05-03 21:11 | 51.28856 | -3.01665 | 3135 ft | 272 kts | 328° |
| 2026-05-03 21:11 | 51.30117 | -3.03821 | 2968 ft | 265 kts | 299° |
| 2026-05-03 21:11 | 51.30920 | -3.06414 | 2833 ft | 255 kts | 296° |
| 2026-05-03 21:12 | 51.31687 | -3.08890 | 2640 ft | 244 kts | 297° |
| 2026-05-03 21:12 | 51.32433 | -3.11272 | 2445 ft | 235 kts | 297° |
| 2026-05-03 21:12 | 51.33144 | -3.13546 | 2287 ft | 223 kts | 297° |
| 2026-05-03 21:12 | 51.33809 | -3.15672 | 2247 ft | 205 kts | 297° |
| 2026-05-03 21:13 | 51.34424 | -3.17640 | 2181 ft | 191 kts | 297° |
| 2026-05-03 21:13 | 51.35026 | -3.19560 | 2069 ft | 196 kts | 297° |
| 2026-05-03 21:13 | 51.35628 | -3.21484 | 1814 ft | 188 kts | 297° |
| 2026-05-03 21:13 | 51.36195 | -3.23291 | 1555 ft | 176 kts | 297° |
| 2026-05-03 21:14 | 51.36717 | -3.24958 | 1332 ft | 162 kts | 297° |
| 2026-05-03 21:14 | 51.37215 | -3.26544 | 1121 ft | 159 kts | 297° |
| 2026-05-03 21:14 | 51.37710 | -3.28111 | 937 ft | 157 kts | 297° |
| 2026-05-03 21:14 | 51.38194 | -3.29660 | 739 ft | 154 kts | 297° |
| 2026-05-03 21:15 | 51.38676 | -3.31186 | 529 ft | 154 kts | 297° |
| 2026-05-03 21:15 | 51.39151 | -3.32720 | 302 ft | 154 kts | 298° |
| 2026-05-03 21:15 | 51.39618 | -3.34184 | 218 ft | 128 kts | 296° |
| 2026-05-03 21:15 | 51.39923 | -3.35154 | 220 ft | 67 kts | 296° |
| 2026-05-03 21:16 | 51.40034 | -3.35505 | 221 ft | 14 kts | 306° |
| 2026-05-03 21:16 | 51.40112 | -3.35485 | 223 ft | 12 kts | 38° |
| 2026-05-03 21:16 | 51.40154 | -3.35373 | 220 ft | 12 kts | 82° |
| 2026-05-03 21:16 | 51.40135 | -3.35249 | 221 ft | 11 kts | 115° |
| 2026-05-03 21:17 | 51.40099 | -3.35134 | 218 ft | 12 kts | 116° |
| 2026-05-03 21:17 | 51.40071 | -3.35046 | 219 ft | 15 kts | 116° |
| 2026-05-03 21:17 | 51.40002 | -3.34824 | 225 ft | 18 kts | 116° |
| 2026-05-03 21:17 | 51.39945 | -3.34643 | 221 ft | 18 kts | 117° |
| 2026-05-03 21:18 | 51.39888 | -3.34464 | 224 ft | 18 kts | 117° |
| 2026-05-03 21:18 | 51.39833 | -3.34290 | 224 ft | 11 kts | 117° |
| 2026-05-03 21:18 | 51.39828 | -3.34177 | 223 ft | 8 kts | 82° |
| 2026-05-03 21:18 | 51.39833 | -3.34109 | 222 ft | 4 kts | 83° |
| 2026-05-03 21:19 | 51.39835 | -3.34077 | 221 ft | 1 kts | 82° |
| 2026-05-03 21:19 | 51.39836 | -3.34071 | 221 ft | 0 kts | 82° |